createdAt,value
2023-03-07T00:00:29.689Z,22.47
2023-03-07T00:02:53.364Z,25.27
2023-03-07T00:05:17.869Z,26.50
2023-03-07T00:07:41.396Z,23.80
2023-03-07T00:10:05.687Z,29.17
2023-03-07T00:12:30.627Z,26.87
2023-03-07T00:14:54.313Z,28.77
2023-03-07T00:17:17.921Z,33.70
2023-03-07T00:19:43.752Z,31.00
2023-03-07T00:22:07.274Z,37.70
2023-03-07T00:24:30.945Z,40.50
2023-03-07T00:26:54.479Z,30.13
2023-03-07T00:29:19.635Z,34.70
2023-03-07T00:31:43.304Z,39.80
2023-03-07T00:34:07.582Z,41.70
2023-03-07T00:36:31.419Z,38.63
2023-03-07T00:38:55.587Z,35.90
2023-03-07T00:41:21.573Z,42.70
2023-03-07T00:43:45.706Z,26.37
2023-03-07T00:46:11.113Z,42.87
2023-03-07T00:48:37.528Z,36.70
2023-03-07T00:51:01.495Z,29.17
2023-03-07T00:53:25.573Z,32.50
2023-03-07T00:55:57.915Z,30.57
2023-03-07T00:58:21.513Z,32.97
2023-03-07T01:00:46.584Z,28.80
2023-03-07T01:03:11.866Z,30.83
2023-03-07T01:05:40.361Z,33.90
2023-03-07T01:08:04.118Z,30.30
2023-03-07T01:10:29.315Z,32.53
2023-03-07T01:12:52.957Z,28.40
2023-03-07T01:15:17.244Z,31.00
2023-03-07T01:17:40.850Z,33.87
2023-03-07T01:20:07.180Z,30.20
2023-03-07T01:22:33.171Z,33.17
2023-03-07T01:24:57.065Z,32.20
2023-03-07T01:27:20.826Z,31.00
2023-03-07T01:29:44.480Z,30.10
2023-03-07T01:32:08.483Z,32.47
2023-03-07T01:34:32.175Z,28.30
2023-03-07T01:36:57.155Z,34.03
2023-03-07T01:39:20.845Z,35.73
2023-03-07T01:42:00.930Z,31.77
2023-03-07T01:44:27.375Z,32.10
2023-03-07T01:46:53.526Z,33.27
2023-03-07T01:49:25.039Z,35.87
2023-03-07T01:52:02.597Z,33.60
2023-03-07T01:54:27.674Z,34.77
2023-03-07T01:56:52.207Z,23.53
2023-03-07T01:59:22.469Z,32.20
2023-03-07T02:01:46.310Z,36.87
2023-03-07T02:04:17.365Z,36.63
2023-03-07T02:06:41.325Z,39.27
2023-03-07T02:09:12.390Z,41.10
2023-03-07T02:11:36.163Z,41.10
2023-03-07T02:13:59.842Z,39.03
2023-03-07T02:16:23.666Z,34.63
2023-03-07T02:18:50.909Z,37.20
2023-03-07T02:21:28.206Z,43.97
2023-03-07T02:24:00.579Z,41.70
2023-03-07T02:26:46.222Z,37.93
2023-03-07T02:29:10.589Z,37.40
2023-03-07T02:31:34.537Z,22.47
2023-03-07T02:33:58.265Z,27.80
2023-03-07T02:36:26.799Z,41.27
2023-03-07T02:39:06.846Z,41.43
2023-03-07T02:41:33.895Z,41.70
2023-03-07T02:44:03.468Z,49.20
2023-03-07T02:46:27.438Z,41.30
2023-03-07T02:48:51.136Z,47.07
2023-03-07T02:51:15.446Z,50.37
2023-03-07T02:53:40.955Z,45.37
2023-03-07T02:56:04.954Z,51.57
2023-03-07T02:58:28.702Z,51.67
2023-03-07T03:00:53.816Z,51.27
2023-03-07T03:03:17.353Z,50.30
2023-03-07T03:05:40.965Z,35.63
2023-03-07T03:08:04.598Z,53.60
2023-03-07T03:10:28.282Z,56.30
2023-03-07T03:12:52.532Z,54.57
2023-03-07T03:15:16.539Z,59.23
2023-03-07T03:17:41.705Z,59.03
2023-03-07T03:20:08.913Z,63.67
2023-03-07T03:22:32.994Z,55.43
2023-03-07T03:24:57.039Z,61.53
2023-03-07T03:27:20.635Z,65.10
2023-03-07T03:29:47.141Z,62.97
2023-03-07T03:32:11.330Z,70.17
2023-03-07T03:34:37.232Z,66.07
2023-03-07T03:37:01.178Z,63.63
2023-03-07T03:39:25.386Z,68.70
2023-03-07T03:41:53.045Z,65.07
2023-03-07T03:44:18.784Z,69.77
2023-03-07T03:46:42.323Z,72.63
2023-03-07T03:49:06.304Z,68.17
2023-03-07T03:51:32.576Z,64.77
2023-03-07T03:53:57.656Z,61.47
2023-03-07T03:56:24.655Z,62.00
2023-03-07T03:58:49.379Z,58.03
2023-03-07T04:01:14.173Z,54.23
2023-03-07T04:03:40.928Z,55.80
2023-03-07T04:06:05.765Z,56.43
2023-03-07T04:08:30.781Z,54.93
2023-03-07T04:10:54.300Z,56.10
2023-03-07T04:13:17.976Z,50.50
2023-03-07T04:15:41.590Z,38.37
2023-03-07T04:18:05.285Z,53.13
2023-03-07T04:20:28.951Z,52.33
2023-03-07T04:22:52.660Z,50.90
2023-03-07T04:25:17.976Z,57.50
2023-03-07T04:27:41.665Z,44.37
2023-03-07T04:30:06.344Z,52.53
2023-03-07T04:32:30.072Z,51.37
2023-03-07T04:34:53.756Z,55.57
2023-03-07T04:37:17.385Z,54.03
2023-03-07T04:39:41.297Z,51.47
2023-03-07T04:42:08.255Z,53.13
2023-03-07T04:44:33.410Z,48.03
2023-03-07T04:46:57.038Z,52.40
2023-03-07T04:49:20.730Z,54.37
2023-03-07T04:51:45.185Z,53.03
2023-03-07T04:54:11.652Z,49.77
2023-03-07T04:56:35.652Z,55.93
2023-03-07T04:59:01.581Z,49.70
2023-03-07T05:01:25.385Z,49.23
2023-03-07T05:03:49.491Z,47.37
2023-03-07T05:06:17.385Z,42.80
2023-03-07T05:08:45.570Z,49.13
2023-03-07T05:11:09.386Z,39.50
2023-03-07T05:13:33.301Z,54.13
2023-03-07T05:16:00.111Z,46.20
2023-03-07T05:18:25.507Z,42.03
2023-03-07T05:20:50.501Z,42.07
2023-03-07T05:23:14.378Z,50.20
2023-03-07T05:25:38.166Z,47.80
2023-03-07T05:28:01.769Z,48.23
2023-03-07T05:30:25.542Z,41.07
2023-03-07T05:32:51.413Z,49.27
2023-03-07T05:35:15.669Z,45.03
2023-03-07T05:37:40.645Z,45.23
2023-03-07T05:40:06.832Z,44.73
2023-03-07T05:42:30.612Z,48.40
2023-03-07T05:44:54.283Z,42.33
2023-03-07T05:47:18.042Z,45.87
2023-03-07T05:49:43.081Z,41.97
2023-03-07T05:52:07.558Z,48.03
2023-03-07T05:54:31.417Z,51.03
2023-03-07T05:56:55.103Z,48.33
2023-03-07T05:59:19.569Z,42.83
2023-03-07T06:01:45.692Z,40.27
2023-03-07T06:04:09.797Z,41.33
2023-03-07T06:06:34.740Z,42.63
2023-03-07T06:08:58.570Z,47.23
2023-03-07T06:11:22.236Z,43.17
2023-03-07T06:13:45.932Z,41.23
2023-03-07T06:16:09.665Z,42.63
2023-03-07T06:18:35.647Z,44.53
2023-03-07T06:21:01.235Z,44.77
2023-03-07T06:23:31.792Z,37.50
2023-03-07T06:25:55.604Z,46.27
2023-03-07T06:28:19.369Z,40.23
2023-03-07T06:30:43.144Z,34.43
2023-03-07T06:33:07.340Z,38.20
2023-03-07T06:35:31.344Z,42.60
2023-03-07T06:37:55.316Z,40.43
2023-03-07T06:40:22.255Z,41.30
2023-03-07T06:42:45.906Z,36.03
2023-03-07T06:45:10.955Z,40.83
2023-03-07T06:47:35.489Z,33.33
2023-03-07T06:50:02.337Z,32.53
2023-03-07T06:52:28.011Z,38.57
2023-03-07T06:54:52.930Z,31.97
2023-03-07T06:57:18.120Z,36.40
2023-03-07T06:59:42.097Z,36.83
2023-03-07T07:02:07.507Z,39.33
2023-03-07T07:04:31.189Z,41.30
2023-03-07T07:06:54.751Z,36.90
2023-03-07T07:09:18.825Z,36.10
2023-03-07T07:11:42.530Z,35.40
2023-03-07T07:14:10.332Z,35.13
2023-03-07T07:16:36.356Z,39.40
2023-03-07T07:19:00.450Z,35.40
2023-03-07T07:21:24.064Z,41.83
2023-03-07T07:23:47.879Z,33.53
2023-03-07T07:26:12.168Z,36.17
2023-03-07T07:28:35.946Z,38.73
2023-03-07T07:31:04.121Z,36.83
2023-03-07T07:33:29.113Z,36.40
2023-03-07T07:35:52.952Z,32.23
2023-03-07T07:38:16.864Z,33.87
2023-03-07T07:40:41.150Z,33.53
2023-03-07T07:43:04.796Z,32.43
2023-03-07T07:45:34.541Z,33.43
2023-03-07T07:48:00.000Z,31.87
2023-03-07T07:50:25.130Z,32.67
2023-03-07T07:52:49.238Z,29.93
2023-03-07T07:55:14.297Z,33.63
2023-03-07T07:57:38.640Z,36.27
2023-03-07T08:00:02.302Z,34.03
2023-03-07T08:02:36.567Z,26.77
2023-03-07T08:05:01.564Z,30.97
2023-03-07T08:07:25.087Z,28.77
2023-03-07T08:09:48.664Z,30.43
2023-03-07T08:12:13.557Z,21.50
2023-03-07T08:14:37.331Z,31.07
2023-03-07T08:17:00.855Z,24.97
2023-03-07T08:19:24.476Z,28.07
2023-03-07T08:21:49.347Z,25.47
2023-03-07T08:24:12.961Z,26.20
2023-03-07T08:26:36.472Z,33.07
2023-03-07T08:29:00.482Z,19.73
2023-03-07T08:31:26.327Z,28.03
2023-03-07T08:33:50.898Z,30.77
2023-03-07T08:36:14.541Z,28.33
2023-03-07T08:38:39.706Z,30.50
2023-03-07T08:41:04.276Z,27.77
2023-03-07T08:43:27.968Z,28.17
2023-03-07T08:45:52.952Z,27.77
2023-03-07T08:48:16.629Z,24.40
2023-03-07T08:50:41.233Z,28.83
2023-03-07T08:53:04.944Z,28.87
2023-03-07T08:55:29.885Z,28.27
2023-03-07T08:57:53.470Z,25.47
2023-03-07T09:00:18.877Z,27.73
2023-03-07T09:02:42.589Z,29.37
2023-03-07T09:05:06.748Z,26.63
2023-03-07T09:07:30.371Z,12.40
2023-03-07T09:09:53.899Z,28.73
2023-03-07T09:12:18.894Z,29.67
2023-03-07T09:14:42.647Z,30.13
2023-03-07T09:17:06.380Z,31.93
2023-03-07T09:19:29.934Z,25.10
2023-03-07T09:21:56.585Z,28.53
2023-03-07T09:24:22.026Z,25.17
2023-03-07T09:26:49.111Z,21.23
2023-03-07T09:29:14.114Z,25.60
2023-03-07T09:31:37.813Z,21.60
2023-03-07T09:34:01.502Z,26.83
2023-03-07T09:36:25.130Z,22.87
2023-03-07T09:38:49.200Z,24.77
2023-03-07T09:41:52.160Z,22.57
2023-03-07T09:44:35.035Z,25.60
2023-03-07T09:48:00.177Z,18.70
2023-03-07T09:50:32.424Z,23.57
2023-03-07T09:53:02.870Z,21.90
2023-03-07T09:55:28.584Z,21.33
2023-03-07T09:57:56.129Z,18.60
2023-03-07T10:00:27.815Z,18.57
2023-03-07T10:02:56.095Z,11.20
2023-03-07T10:05:31.612Z,15.03
2023-03-07T10:07:55.888Z,15.73
2023-03-07T10:10:24.268Z,10.60
2023-03-07T10:13:10.426Z,15.20
2023-03-07T10:15:46.839Z,13.43
2023-03-07T10:18:42.662Z,12.43
2023-03-07T10:21:17.197Z,14.40
2023-03-07T10:24:20.356Z,16.00
2023-03-07T10:26:51.749Z,14.03
2023-03-07T10:29:18.742Z,11.10
2023-03-07T10:31:48.790Z,13.17
2023-03-07T10:34:26.607Z,15.43
2023-03-07T10:37:06.545Z,10.20
2023-03-07T10:39:41.217Z,8.10
2023-03-07T10:42:05.099Z,14.10
2023-03-07T10:44:34.005Z,10.33
2023-03-07T10:47:00.416Z,11.80
2023-03-07T10:49:28.750Z,10.93
2023-03-07T10:51:58.742Z,9.47
2023-03-07T10:54:25.490Z,7.90
2023-03-07T10:57:07.378Z,8.67
2023-03-07T10:59:31.035Z,7.73
2023-03-07T11:02:00.050Z,7.67
2023-03-07T11:04:26.460Z,3.23
2023-03-07T11:06:55.528Z,6.73
2023-03-07T11:09:26.520Z,5.73
2023-03-07T11:11:55.237Z,4.63
2023-03-07T11:14:20.496Z,3.80
2023-03-07T11:16:50.803Z,5.45
2023-03-07T11:19:40.261Z,5.57
2023-03-07T11:22:06.662Z,3.93
2023-03-07T11:24:34.798Z,5.10
2023-03-07T11:27:00.648Z,3.97
2023-03-07T11:29:24.924Z,7.13
2023-03-07T11:32:00.962Z,4.07
2023-03-07T11:34:38.142Z,5.63
2023-03-07T11:37:17.800Z,4.30
2023-03-07T11:39:47.634Z,4.97
2023-03-07T11:42:18.575Z,5.53
2023-03-07T11:44:48.919Z,4.20
2023-03-07T11:47:32.102Z,4.37
2023-03-07T11:50:14.020Z,5.50
2023-03-07T11:53:01.043Z,4.63
2023-03-07T11:55:34.311Z,8.10
2023-03-07T11:58:35.356Z,4.47
2023-03-07T12:01:12.566Z,4.97
2023-03-07T12:04:18.586Z,4.43
2023-03-07T12:06:52.342Z,3.57
2023-03-07T12:09:35.964Z,4.27
2023-03-07T12:12:31.761Z,3.53
2023-03-07T12:15:06.402Z,6.90
2023-03-07T12:20:42.753Z,6.67
2023-03-07T12:23:16.185Z,9.83
2023-03-07T12:25:43.851Z,3.77
2023-03-07T12:28:15.919Z,7.57
2023-03-07T12:30:53.263Z,4.10
2023-03-07T12:33:28.243Z,5.13
2023-03-07T12:35:59.933Z,6.87
2023-03-07T12:38:36.412Z,9.03
2023-03-07T12:41:06.009Z,7.97
2023-03-07T12:43:37.689Z,9.37
2023-03-07T12:46:12.903Z,10.10
2023-03-07T12:48:44.442Z,8.00
2023-03-07T12:51:19.633Z,16.47
2023-03-07T12:53:49.140Z,11.97
2023-03-07T12:56:19.022Z,6.87
2023-03-07T12:58:48.964Z,2.47
2023-03-07T13:01:18.728Z,5.27
2023-03-07T13:03:52.769Z,17.10
2023-03-07T13:06:21.152Z,8.87
2023-03-07T13:08:48.552Z,7.63
2023-03-07T13:11:19.817Z,3.97
2023-03-07T13:13:55.755Z,5.27
2023-03-07T13:16:46.048Z,7.53
2023-03-07T13:19:54.019Z,8.43
2023-03-07T13:23:00.507Z,6.90
2023-03-07T13:26:13.842Z,6.63
2023-03-07T13:28:51.428Z,3.77
2023-03-07T13:31:40.577Z,9.40
2023-03-07T13:34:54.586Z,8.13
2023-03-07T13:37:53.095Z,7.73
2023-03-07T13:40:58.592Z,5.13
2023-03-07T13:44:03.230Z,5.50
2023-03-07T13:46:55.768Z,2.87
2023-03-07T13:49:45.326Z,6.37
2023-03-07T13:52:34.358Z,7.37
2023-03-07T13:55:00.944Z,5.20
2023-03-07T13:57:32.875Z,9.93
2023-03-07T13:59:57.494Z,9.53
2023-03-07T14:02:23.193Z,9.80
2023-03-07T14:04:54.239Z,10.70
2023-03-07T14:07:25.013Z,10.73
2023-03-07T14:09:52.508Z,5.97
2023-03-07T14:12:24.737Z,11.33
2023-03-07T14:15:07.825Z,1.57
2023-03-07T14:17:53.804Z,7.47
2023-03-07T14:20:25.912Z,2.23
2023-03-07T14:23:05.245Z,2.27
2023-03-07T14:25:31.895Z,3.60
2023-03-07T14:27:59.665Z,3.43
2023-03-07T14:30:27.337Z,4.03
2023-03-07T14:32:51.822Z,4.10
2023-03-07T14:35:16.283Z,3.93
2023-03-07T14:37:40.917Z,3.43
2023-03-07T14:40:33.820Z,2.87
2023-03-07T14:43:17.193Z,7.00
2023-03-07T14:45:49.774Z,9.30
2023-03-07T14:48:54.786Z,3.27
2023-03-07T14:51:23.459Z,2.87
2023-03-07T14:53:47.167Z,4.77
2023-03-07T14:56:11.952Z,3.33
2023-03-07T14:58:46.832Z,4.53
2023-03-07T15:01:16.447Z,4.77
2023-03-07T15:03:47.808Z,2.67
2023-03-07T15:06:17.297Z,4.93
2023-03-07T15:08:41.065Z,2.97
2023-03-07T15:11:11.227Z,4.20
2023-03-07T15:13:39.571Z,3.43
2023-03-07T15:16:06.844Z,4.47
2023-03-07T15:18:36.456Z,4.83
2023-03-07T15:21:01.633Z,2.97
2023-03-07T15:23:29.201Z,4.47
2023-03-07T15:25:56.890Z,4.97
2023-03-07T15:28:24.811Z,3.37
2023-03-07T15:30:53.211Z,3.97
2023-03-07T15:33:27.525Z,6.03
2023-03-07T15:36:19.770Z,5.83
2023-03-07T15:38:45.195Z,3.83
2023-03-07T15:41:29.704Z,4.63
2023-03-07T15:44:17.835Z,3.30
2023-03-07T15:46:44.958Z,4.60
2023-03-07T15:49:20.112Z,3.23
2023-03-07T15:51:45.425Z,6.23
2023-03-07T15:54:25.434Z,5.87
2023-03-07T15:56:56.235Z,5.63
2023-03-07T15:59:27.781Z,4.63
2023-03-07T16:01:51.660Z,6.30
2023-03-07T16:04:40.826Z,3.10
2023-03-07T16:07:07.763Z,4.33
2023-03-07T16:09:31.897Z,6.23
2023-03-07T16:11:55.587Z,4.37
2023-03-07T16:14:26.299Z,5.50
2023-03-07T16:16:50.362Z,28.80
2023-03-07T16:19:14.566Z,4.73
2023-03-07T16:21:38.132Z,23.00
2023-03-07T16:24:03.270Z,13.47
2023-03-07T16:26:27.168Z,21.87
2023-03-07T16:28:51.314Z,13.87
2023-03-07T16:31:17.106Z,8.33
2023-03-07T16:33:40.672Z,6.03
2023-03-07T16:36:04.331Z,6.37
2023-03-07T16:38:27.829Z,4.27
2023-03-07T16:40:52.883Z,8.87
2023-03-07T16:43:33.799Z,10.13
2023-03-07T16:45:57.863Z,7.70
2023-03-07T16:48:21.432Z,8.77
2023-03-07T16:50:45.045Z,6.07
2023-03-07T16:53:08.597Z,7.63
2023-03-07T16:55:34.347Z,7.80
2023-03-07T16:58:02.603Z,6.97
2023-03-07T17:00:28.495Z,17.70
2023-03-07T17:02:54.462Z,9.53
2023-03-07T17:05:20.665Z,5.60
2023-03-07T17:07:44.353Z,11.27
2023-03-07T17:10:08.727Z,9.07
2023-03-07T17:12:32.263Z,74.33
2023-03-07T17:14:59.268Z,17.50
2023-03-07T17:17:29.359Z,18.00
2023-03-07T17:19:52.954Z,20.47
2023-03-07T17:22:17.485Z,27.47
2023-03-07T17:24:42.349Z,10.67
2023-03-07T17:27:06.101Z,6.87
2023-03-07T17:29:35.065Z,12.87
2023-03-07T17:32:00.191Z,10.07
2023-03-07T17:34:27.250Z,5.93
2023-03-07T17:36:50.796Z,8.70
2023-03-07T17:39:14.418Z,11.20
2023-03-07T17:41:37.916Z,7.67
2023-03-07T17:44:01.546Z,5.37
2023-03-07T17:46:25.172Z,4.30
2023-03-07T17:48:50.205Z,11.37
2023-03-07T17:51:13.791Z,4.13
2023-03-07T17:53:37.894Z,6.10
2023-03-07T17:56:08.687Z,5.00
2023-03-07T17:58:32.271Z,5.27
2023-03-07T18:00:55.855Z,6.53
2023-03-07T18:03:19.393Z,6.90
2023-03-07T18:05:44.451Z,7.73
2023-03-07T18:08:08.629Z,7.33
2023-03-07T18:10:32.373Z,7.13
2023-03-07T18:12:55.974Z,8.17
2023-03-07T18:15:22.086Z,6.33
2023-03-07T18:17:48.689Z,6.70
2023-03-07T18:20:14.971Z,9.07
2023-03-07T18:22:40.296Z,13.73
2023-03-07T18:25:04.540Z,15.53
2023-03-07T18:27:28.171Z,12.43
2023-03-07T18:29:51.668Z,6.17
2023-03-07T18:32:15.324Z,5.43
2023-03-07T18:34:38.853Z,10.37
2023-03-07T18:37:03.851Z,6.73
2023-03-07T18:39:28.839Z,7.80
2023-03-07T18:41:52.765Z,8.37
2023-03-07T18:44:18.406Z,9.67
2023-03-07T18:46:42.204Z,3.67
2023-03-07T18:49:05.800Z,8.47
2023-03-07T18:51:30.000Z,5.80
2023-03-07T18:53:53.843Z,6.97
2023-03-07T18:56:19.419Z,6.53
2023-03-07T18:58:44.281Z,8.50
2023-03-07T19:01:13.555Z,4.53
2023-03-07T19:03:37.663Z,7.80
2023-03-07T19:06:01.332Z,6.40
2023-03-07T19:08:24.855Z,6.00
2023-03-07T19:10:48.462Z,8.53
2023-03-07T19:13:13.456Z,5.53
2023-03-07T19:15:37.097Z,9.40
2023-03-07T19:18:00.689Z,4.13
2023-03-07T19:20:25.661Z,5.63
2023-03-07T19:22:49.185Z,4.30
2023-03-07T19:25:13.732Z,7.23
2023-03-07T19:27:37.359Z,5.00
2023-03-07T19:30:02.326Z,8.63
2023-03-07T19:32:25.917Z,5.47
2023-03-07T19:34:55.575Z,6.73
2023-03-07T19:37:19.127Z,5.83
2023-03-07T19:39:42.918Z,7.87
2023-03-07T19:42:06.600Z,7.10
2023-03-07T19:44:30.191Z,7.30
2023-03-07T19:46:56.032Z,9.90
2023-03-07T19:49:23.040Z,5.80
2023-03-07T19:51:46.794Z,4.13
2023-03-07T19:54:11.686Z,9.17
2023-03-07T19:56:35.752Z,5.23
2023-03-07T19:59:01.812Z,7.30
2023-03-07T20:01:25.573Z,8.73
2023-03-07T20:03:51.070Z,8.40
2023-03-07T20:06:19.831Z,6.50
2023-03-07T20:08:43.805Z,7.70
2023-03-07T20:11:15.358Z,6.13
2023-03-07T20:13:39.104Z,11.10
2023-03-07T20:16:02.766Z,8.53
2023-03-07T20:18:26.587Z,13.23
2023-03-07T20:20:51.558Z,11.13
2023-03-07T20:23:15.230Z,11.30
2023-03-07T20:25:39.326Z,10.47
2023-03-07T20:28:05.484Z,11.40
2023-03-07T20:30:30.339Z,10.10
2023-03-07T20:32:54.046Z,15.73
2023-03-07T20:35:18.878Z,15.50
2023-03-07T20:37:44.439Z,9.40
2023-03-07T20:40:11.057Z,7.77
2023-03-07T20:42:35.208Z,6.23
2023-03-07T20:44:59.118Z,10.80
2023-03-07T20:47:22.798Z,8.37
2023-03-07T20:49:46.906Z,10.53
2023-03-07T20:52:11.033Z,7.73
2023-03-07T20:54:36.132Z,9.27
2023-03-07T20:56:59.747Z,9.27
2023-03-07T20:59:23.902Z,10.17
2023-03-07T21:01:48.904Z,9.13
2023-03-07T21:04:15.138Z,9.77
2023-03-07T21:06:41.970Z,8.43
2023-03-07T21:09:08.195Z,9.27
2023-03-07T21:11:33.532Z,8.70
2023-03-07T21:13:57.859Z,11.10
2023-03-07T21:16:23.878Z,11.80
2023-03-07T21:18:48.880Z,7.70
2023-03-07T21:21:15.411Z,8.50
2023-03-07T21:23:39.333Z,18.53
2023-03-07T21:26:03.938Z,16.73
2023-03-07T21:28:29.553Z,10.33
2023-03-07T21:30:53.493Z,10.90
2023-03-07T21:33:17.315Z,14.37
2023-03-07T21:35:41.434Z,18.43
2023-03-07T21:38:05.228Z,9.87
2023-03-07T21:40:29.231Z,12.90
2023-03-07T21:42:52.837Z,8.77
2023-03-07T21:45:18.295Z,11.33
2023-03-07T21:47:42.432Z,8.40
2023-03-07T21:50:06.856Z,13.90
2023-03-07T21:52:30.448Z,10.67
2023-03-07T21:54:54.051Z,12.37
2023-03-07T21:57:20.748Z,12.10
2023-03-07T21:59:44.727Z,13.53
2023-03-07T22:02:11.935Z,14.37
2023-03-07T22:04:35.646Z,14.60
2023-03-07T22:06:59.480Z,15.60
2023-03-07T22:09:23.153Z,12.03
2023-03-07T22:11:46.679Z,11.30
2023-03-07T22:14:10.327Z,9.57
2023-03-07T22:16:33.892Z,5.53
2023-03-07T22:18:59.163Z,10.77
2023-03-07T22:21:25.109Z,11.53
2023-03-07T22:23:49.009Z,12.83
2023-03-07T22:26:13.988Z,10.37
2023-03-07T22:28:38.040Z,10.30
2023-03-07T22:31:07.056Z,11.13
2023-03-07T22:33:30.731Z,9.33
2023-03-07T22:35:59.399Z,13.27
2023-03-07T22:38:23.009Z,9.23
2023-03-07T22:40:46.527Z,13.20
2023-03-07T22:43:10.122Z,9.03
2023-03-07T22:45:33.635Z,9.23
2023-03-07T22:47:57.642Z,8.30
2023-03-07T22:50:21.462Z,8.97
2023-03-07T22:52:46.472Z,9.63
2023-03-07T22:55:11.043Z,12.97
2023-03-07T22:57:34.740Z,8.47
2023-03-07T22:59:58.291Z,11.43
2023-03-07T23:02:21.865Z,8.87
2023-03-07T23:04:45.739Z,11.50
2023-03-07T23:07:09.537Z,9.40
2023-03-07T23:09:34.601Z,10.03
2023-03-07T23:11:58.262Z,6.03
2023-03-07T23:14:21.801Z,10.10
2023-03-07T23:16:45.366Z,20.43
2023-03-07T23:19:09.285Z,6.93
2023-03-07T23:21:34.714Z,9.17
2023-03-07T23:23:59.076Z,6.70
2023-03-07T23:26:26.900Z,7.17
2023-03-07T23:28:50.560Z,12.17
2023-03-07T23:31:18.943Z,12.40
2023-03-07T23:33:42.544Z,6.93
2023-03-07T23:36:07.214Z,13.63
2023-03-07T23:38:30.725Z,10.10
2023-03-07T23:40:54.342Z,10.87
2023-03-07T23:43:19.248Z,7.33
2023-03-07T23:45:42.874Z,8.70
2023-03-07T23:48:07.120Z,6.90
2023-03-07T23:50:30.801Z,8.83
2023-03-07T23:52:54.328Z,7.53
2023-03-07T23:55:18.478Z,7.97
2023-03-07T23:57:43.286Z,11.73
